Time;durP1;ratioP1;P1;durP2;ratioP2;P2;SDS_P1;SDS_P2;PMS_P1;PMS_P2;Temp;Humidity;BMP_temperature;BMP_pressure;BME280_temperature;BME280_humidity;BME280_pressure;Samples;Min_cycle;Max_cycle;Signal;HPM_P1;HPM_P2
2022/01/08 00:06:50;;;;;;;30.90;13.90;;;;;;;-1.24;100.00;99332.76;102810;1294;72638;-68
2022/01/08 00:10:40;;;;;;;29.40;13.50;;;;;;;-1.19;100.00;99332.92;102762;1294;59974;-68
2022/01/08 00:15:06;;;;;;;30.20;12.60;;;;;;;-1.17;100.00;99335.99;103002;1294;59665;-68
2022/01/08 00:19:26;;;;;;;39.00;15.30;;;;;;;-1.17;100.00;99331.99;103147;1293;73957;-68
2022/01/08 00:23:18;;;;;;;35.70;14.60;;;;;;;-1.18;100.00;99334.96;104169;1287;67054;-69
2022/01/08 00:26:44;;;;;;;35.60;13.80;;;;;;;-1.16;100.00;99340.28;103801;1287;71878;-68
2022/01/08 00:31:00;;;;;;;28.10;12.00;;;;;;;-1.12;100.00;99343.27;104292;1287;59865;-69
2022/01/08 00:34:38;;;;;;;31.00;13.40;;;;;;;-1.10;100.00;99344.20;103940;1287;59790;-69
2022/01/08 00:38:14;;;;;;;39.90;15.50;;;;;;;-1.08;100.00;99345.33;104874;1281;72639;-69
2022/01/08 00:41:53;;;;;;;36.30;15.40;;;;;;;-1.04;100.00;99351.28;104495;1281;68251;-69
2022/01/08 00:44:59;;;;;;;24.40;10.30;;;;;;;-1.04;100.00;99351.44;104642;1274;72978;-69
2022/01/08 00:48:04;;;;;;;28.00;12.40;;;;;;;-1.06;100.00;99349.08;105082;1274;59885;-69
2022/01/08 00:54:47;;;;;;;34.70;15.40;;;;;;;-1.06;100.00;99345.45;105227;1273;72033;-69
2022/01/08 00:57:57;;;;;;;35.20;16.30;;;;;;;-1.01;100.00;99343.87;104889;1274;68328;-70
2022/01/08 01:01:15;;;;;;;36.50;15.70;;;;;;;-0.95;100.00;99337.87;104827;1274;72715;-69
2022/01/08 01:05:33;;;;;;;;;;;;;;;;;;;;;
2022/01/08 01:10:18;;;;;;;29.50;12.60;;;;;;;-0.92;100.00;99334.95;104796;1273;61785;-71
2022/01/08 01:13:46;;;;;;;36.30;14.40;;;;;;;-0.94;100.00;99328.05;105391;1274;73085;-69
2022/01/08 01:16:55;;;;;;;36.60;16.20;;;;;;;-0.93;100.00;99329.27;105033;1273;65763;-69
2022/01/08 01:20:52;;;;;;;39.40;15.60;;;;;;;-0.93;100.00;99324.02;104893;1273;72997;-69
2022/01/08 01:29:27;;;;;;;27.10;11.30;;;;;;;-0.89;100.00;99324.20;105153;1273;59639;-69
2022/01/08 01:49:44;;;;;;;27.90;12.50;;;;;;;-0.91;100.00;99310.17;104493;1281;73307;-69
2022/01/08 01:52:59;;;;;;;33.30;15.30;;;;;;;-0.92;100.00;99306.05;104840;1280;66816;-70
2022/01/08 01:56:10;;;;;;;35.10;15.70;;;;;;;-0.94;100.00;99298.80;104678;1281;71810;-68
2022/01/08 01:59:21;;;;;;;35.70;15.10;;;;;;;-0.93;100.00;99301.02;104619;1281;59653;-68
2022/01/08 02:02:20;;;;;;;29.00;13.70;;;;;;;-0.92;100.00;99303.77;104469;1281;59861;-68
2022/01/08 02:06:11;;;;;;;36.20;15.70;;;;;;;-0.91;100.00;99304.77;104248;1281;73594;-68
2022/01/08 02:08:45;;;;;;;30.00;13.90;;;;;;;-0.90;100.00;99300.70;104785;1281;66652;-68
2022/01/08 02:12:04;;;;;;;28.20;12.50;;;;;;;-0.91;100.00;99302.14;104696;1281;71606;-68
2022/01/08 02:15:00;;;;;;;28.40;12.70;;;;;;;-0.92;100.00;99299.07;104564;1281;59616;-68
2022/01/08 02:18:09;;;;;;;31.70;14.00;;;;;;;-0.92;100.00;99301.88;104530;1273;60338;-68
2022/01/08 02:21:16;;;;;;;35.00;15.10;;;;;;;-0.92;100.00;99295.73;105138;1274;73262;-68
2022/01/08 02:24:09;;;;;;;32.70;16.10;;;;;;;-0.89;100.00;99291.96;104925;1272;68488;-68
2022/01/08 02:27:11;;;;;;;26.50;12.50;;;;;;;-0.85;100.00;99295.80;105255;1274;73047;-68
2022/01/08 02:35:21;;;;;;;30.70;13.10;;;;;;;-0.90;100.00;99284.16;105220;1274;59817;-68
2022/01/08 02:38:39;;;;;;;29.10;13.30;;;;;;;-0.91;100.00;99282.13;105069;1274;71019;-68
2022/01/08 02:41:54;;;;;;;26.90;12.10;;;;;;;-0.92;100.00;99285.83;105141;1274;68471;-68
2022/01/08 02:45:25;;;;;;;;;;;;;;;;;;;;;
2022/01/08 02:48:30;;;;;;;29.20;14.00;;;;;;;-0.92;100.00;99281.84;104833;1274;59706;-68
2022/01/08 02:51:34;;;;;;;26.70;12.80;;;;;;;-0.89;100.00;99279.09;104732;1273;59627;-68
2022/01/08 02:55:04;;;;;;;24.10;10.90;;;;;;;-0.91;100.00;99276.56;105236;1272;73352;-68
2022/01/08 02:58:32;;;;;;;;;;;;;;;;;;;;;
2022/01/08 03:01:53;;;;;;;32.70;14.80;;;;;;;-0.89;100.00;99277.00;105378;1274;71358;-68
2022/01/08 03:05:17;;;;;;;31.60;14.00;;;;;;;-0.86;100.00;99276.67;104296;1274;1003595;-68
2022/01/08 03:08:13;;;;;;;27.90;11.10;;;;;;;-0.83;100.00;99274.48;104852;1273;59837;-68
2022/01/08 03:11:08;;;;;;;32.60;15.40;;;;;;;-0.83;100.00;99273.62;105022;1274;73581;-68
2022/01/08 03:14:17;;;;;;;31.80;15.20;;;;;;;-0.82;100.00;99273.73;105179;1272;68265;-68
2022/01/08 03:17:26;;;;;;;27.70;12.10;;;;;;;-0.81;100.00;99271.92;104758;1274;72015;-68
2022/01/08 03:20:32;;;;;;;28.10;13.40;;;;;;;-0.81;100.00;99269.84;105128;1274;59683;-68
2022/01/08 03:23:52;;;;;;;21.30;9.80;;;;;;;-0.82;100.00;99271.63;105300;1274;60704;-68
2022/01/08 03:27:11;;;;;;;24.10;11.60;;;;;;;-0.86;100.00;99268.66;105082;1273;73642;-68
2022/01/08 03:30:24;;;;;;;32.40;15.20;;;;;;;-0.86;100.00;99267.30;105084;1274;66756;-68
2022/01/08 03:33:28;;;;;;;29.10;13.40;;;;;;;-0.89;100.00;99264.44;104696;1274;72854;-68
2022/01/08 03:36:37;;;;;;;29.60;14.40;;;;;;;-0.92;100.00;99265.80;105228;1274;59608;-68
2022/01/08 03:39:50;;;;;;;24.50;12.90;;;;;;;-0.93;100.00;99262.89;105049;1274;60526;-68
2022/01/08 03:43:00;;;;;;;27.90;13.80;;;;;;;-0.92;100.00;99261.61;105345;1273;72072;-69
2022/01/08 03:46:21;;;;;;;22.60;10.90;;;;;;;-0.93;100.00;99258.36;104907;1272;67182;-68
2022/01/08 03:49:42;;;;;;;31.40;13.20;;;;;;;-0.95;100.00;99256.18;104819;1274;73298;-68
2022/01/08 03:52:51;;;;;;;28.20;14.20;;;;;;;-0.97;100.00;99251.38;105325;1272;59736;-69
2022/01/08 03:56:03;;;;;;;29.10;13.70;;;;;;;-0.99;100.00;99249.02;105328;1274;59653;-68
2022/01/08 03:59:15;;;;;;;29.00;13.90;;;;;;;-0.99;100.00;99246.24;105011;1274;73321;-68
2022/01/08 04:02:28;;;;;;;26.20;13.30;;;;;;;-0.98;100.00;99250.40;105037;1274;68158;-69
2022/01/08 04:05:37;;;;;;;24.30;12.30;;;;;;;-0.99;100.00;99247.98;105050;1274;73819;-68
2022/01/08 04:08:33;;;;;;;24.40;12.90;;;;;;;-0.98;100.00;99245.88;105106;1274;59647;-67
2022/01/08 04:11:40;;;;;;;37.20;17.60;;;;;;;-1.00;100.00;99245.79;105038;1274;59556;-69
2022/01/08 04:14:50;;;;;;;33.30;16.10;;;;;;;-1.00;100.00;99241.77;105672;1273;72402;-69
2022/01/08 04:17:41;;;;;;;31.00;15.50;;;;;;;-0.99;100.00;99236.16;105390;1272;68195;-69
2022/01/08 04:24:16;;;;;;;25.20;12.80;;;;;;;-0.96;100.00;99230.45;105228;1273;59676;-68
2022/01/08 04:27:46;;;;;;;27.70;14.60;;;;;;;-0.97;100.00;99229.10;105469;1274;59580;-68
2022/01/08 04:30:59;;;;;;;;;;;;;;;;;;;;;
2022/01/08 04:34:26;;;;;;;29.10;13.70;;;;;;;-0.95;100.00;99226.05;105755;1273;68072;-68
2022/01/08 04:37:30;;;;;;;26.00;13.50;;;;;;;-0.95;100.00;99227.09;105550;1274;71450;-69
2022/01/08 04:40:35;;;;;;;25.60;13.70;;;;;;;-0.95;100.00;99227.80;105454;1274;59774;-68
2022/01/08 04:43:47;;;;;;;29.10;13.20;;;;;;;-0.97;100.00;99221.45;105635;1272;60587;-69
2022/01/08 04:46:49;;;;;;;28.00;13.90;;;;;;;-0.98;100.00;99224.63;105261;1274;73722;-69
2022/01/08 04:49:56;;;;;;;25.30;13.10;;;;;;;-0.99;100.00;99218.91;105364;1272;68265;-68
2022/01/08 04:57:20;;;;;;;27.60;13.10;;;;;;;-1.04;100.00;99207.09;105564;1274;59650;-68
2022/01/08 05:00:49;;;;;;;24.90;12.30;;;;;;;-1.03;100.00;99209.50;105584;1272;60530;-68
2022/01/08 05:04:47;;;;;;;27.10;12.90;;;;;;;-1.03;100.00;99210.52;105271;1273;73304;-69
2022/01/08 05:07:47;;;;;;;21.50;10.20;;;;;;;-1.03;100.00;99212.27;105484;1272;68105;-68
2022/01/08 05:11:40;;;;;;;23.90;10.80;;;;;;;-1.01;100.00;99212.41;105036;1273;70702;-68
2022/01/08 05:14:50;;;;;;;21.50;9.90;;;;;;;-1.02;100.00;99212.05;104785;1281;59389;-69
2022/01/08 05:22:40;;;;;;;23.60;11.00;;;;;;;-1.04;100.00;99209.38;103941;1287;73343;-68
2022/01/08 05:25:40;;;;;;;27.70;12.80;;;;;;;-1.03;100.00;99210.70;103979;1287;66729;-68
2022/01/08 05:28:44;;;;;;;26.00;13.20;;;;;;;-1.03;100.00;99210.38;103620;1288;73657;-68
2022/01/08 05:31:48;;;;;;;27.80;13.20;;;;;;;-1.04;100.00;99211.98;103820;1286;59774;-68
2022/01/08 05:34:51;;;;;;;25.20;12.30;;;;;;;-1.06;100.00;99211.69;103323;1286;1002665;-68
2022/01/08 05:37:51;;;;;;;31.70;14.40;;;;;;;-1.05;100.00;99209.59;104335;1287;73386;-68
2022/01/08 05:41:17;;;;;;;29.70;14.50;;;;;;;-1.04;100.00;99206.73;103523;1287;66865;-67
2022/01/08 05:48:08;;;;;;;26.90;13.60;;;;;;;-0.97;100.00;99201.73;103992;1287;59889;-68
2022/01/08 05:51:04;;;;;;;26.30;13.60;;;;;;;-0.94;100.00;99202.52;104732;1275;60330;-68
2022/01/08 05:54:20;;;;;;;26.60;13.80;;;;;;;-0.92;100.00;99200.14;105531;1273;72244;-69
2022/01/08 05:57:45;;;;;;;24.80;12.50;;;;;;;-0.92;100.00;99197.52;105101;1275;68236;-69
2022/01/08 06:01:00;;;;;;;26.30;12.30;;;;;;;-0.90;100.00;99201.09;105547;1273;71871;-68
2022/01/08 06:04:16;;;;;;;;;;;;;;;;;;;;;
2022/01/08 06:07:37;;;;;;;31.30;15.60;;;;;;;-0.95;100.00;99197.33;105387;1274;60111;-69
2022/01/08 06:10:45;;;;;;;;;;;;;;;;;;;;;
2022/01/08 06:13:43;;;;;;;29.10;13.60;;;;;;;-0.96;100.00;99196.52;104997;1273;68561;-68
2022/01/08 06:17:39;;;;;;;25.80;12.60;;;;;;;-0.97;100.00;99193.20;105473;1273;73028;-69
2022/01/08 06:20:41;;;;;;;29.30;14.60;;;;;;;-0.95;100.00;99195.59;101011;1274;59722;-68
2022/01/08 06:24:19;;;;;;;30.50;14.40;;;;;;;-0.94;100.00;99192.04;105274;1273;73358;-69
2022/01/08 06:27:24;;;;;;;31.50;14.90;;;;;;;-0.93;100.00;99194.98;105016;1273;68680;-68
2022/01/08 06:31:41;;;;;;;27.20;11.40;;;;;;;-0.93;100.00;99198.80;105309;1274;73083;-68
2022/01/08 06:34:38;;;;;;;26.00;13.80;;;;;;;-0.94;100.00;99198.30;105347;1274;59618;-69
2022/01/08 06:37:38;;;;;;;26.50;13.00;;;;;;;-0.94;100.00;99198.33;105536;1274;60274;-69
2022/01/08 06:40:46;;;;;;;29.10;13.50;;;;;;;-0.95;100.00;99201.49;105407;1274;73505;-69
2022/01/08 06:43:52;;;;;;;34.20;16.50;;;;;;;-0.96;100.00;99205.52;105250;1273;66936;-70
2022/01/08 06:47:00;;;;;;;28.90;15.30;;;;;;;-0.93;100.00;99208.56;105266;1274;71460;-68
2022/01/08 06:49:56;;;;;;;30.20;13.90;;;;;;;-0.94;100.00;99203.54;105489;1274;59745;-69
2022/01/08 06:53:02;;;;;;;28.60;15.70;;;;;;;-0.92;100.00;99204.33;105195;1273;59667;-69
2022/01/08 06:55:59;;;;;;;25.00;13.40;;;;;;;-0.89;100.00;99209.41;105325;1273;73301;-68
2022/01/08 06:59:01;;;;;;;25.30;12.90;;;;;;;-0.88;100.00;99208.33;105174;1274;68323;-68
2022/01/08 07:02:27;;;;;;;29.80;14.40;;;;;;;-0.91;100.00;99212.46;105138;1272;74276;-68
2022/01/08 07:05:31;;;;;;;31.50;15.50;;;;;;;-0.93;100.00;99211.86;105669;1274;59521;-69
2022/01/08 07:08:31;;;;;;;27.90;15.00;;;;;;;-0.93;100.00;99211.35;105481;1274;59830;-70
2022/01/08 07:11:41;;;;;;;31.80;15.70;;;;;;;-0.92;100.00;99207.27;105253;1274;73392;-68
2022/01/08 07:14:40;;;;;;;24.70;12.80;;;;;;;-0.91;100.00;99203.08;105177;1274;68205;-69
2022/01/08 07:17:37;;;;;;;26.40;14.00;;;;;;;-0.89;100.00;99197.92;105193;1274;71659;-68
2022/01/08 07:21:01;;;;;;;24.30;12.90;;;;;;;-0.89;100.00;99198.46;105049;1274;59755;-69
2022/01/08 07:24:31;;;;;;;28.20;13.50;;;;;;;-0.92;100.00;99200.66;105610;1273;60909;-69
2022/01/08 07:27:32;;;;;;;30.50;15.50;;;;;;;-0.94;100.00;99193.94;105335;1273;72489;-69
2022/01/08 07:30:44;;;;;;;25.40;12.30;;;;;;;-0.92;100.00;99194.93;105233;1273;65680;-68
2022/01/08 07:38:18;;;;;;;22.40;11.30;;;;;;;-0.92;100.00;99196.11;105566;1273;59681;-68
2022/01/08 07:41:32;;;;;;;28.80;13.90;;;;;;;-0.91;100.00;99192.44;105641;1273;59590;-69
2022/01/08 07:52:16;;;;;;;23.10;11.60;;;;;;;-0.84;100.00;99199.98;105268;1275;71866;-68
2022/01/08 07:55:45;;;;;;;29.70;14.20;;;;;;;-0.86;100.00;99200.58;105343;1273;60550;-69
2022/01/08 07:59:05;;;;;;;20.00;8.90;;;;;;;-0.82;100.00;99196.59;105180;1273;60957;-70
2022/01/08 08:02:24;;;;;;;27.90;12.00;;;;;;;-0.79;100.00;99193.13;105049;1277;74689;-68
2022/01/08 08:06:00;;;;;;;18.20;8.40;;;;;;;-0.76;100.00;99186.70;105012;1277;67914;-70
2022/01/08 08:08:59;;;;;;;20.50;9.70;;;;;;;-0.76;100.00;99191.75;104731;1277;71183;-68
2022/01/08 08:12:08;;;;;;;31.10;14.30;;;;;;;-0.80;100.00;99195.27;104950;1277;59893;-69
2022/01/08 08:15:14;;;;;;;27.70;13.90;;;;;;;-0.80;100.00;99189.67;104953;1277;59578;-68
2022/01/08 08:18:43;;;;;;;29.30;13.10;;;;;;;-0.78;100.00;99179.86;104799;1277;72205;-68
2022/01/08 08:21:52;;;;;;;27.60;12.40;;;;;;;-0.77;100.00;99174.55;105423;1274;68165;-68
2022/01/08 08:25:06;;;;;;;29.60;13.80;;;;;;;-0.72;100.00;99161.27;105337;1272;73049;-70
2022/01/08 08:28:14;;;;;;;26.60;11.80;;;;;;;-0.69;100.00;99156.80;105266;1273;59777;-69
2022/01/08 08:31:28;;;;;;;25.90;12.30;;;;;;;-0.68;100.00;99161.61;105081;1273;59564;-69
2022/01/08 08:34:41;;;;;;;32.30;15.10;;;;;;;-0.64;100.00;99163.34;105605;1273;72365;-69
2022/01/08 08:37:46;;;;;;;30.30;15.00;;;;;;;-0.59;100.00;99168.02;105584;1273;66848;-69
2022/01/08 08:40:54;;;;;;;29.50;14.40;;;;;;;-0.58;100.00;99163.60;105423;1274;72897;-68
2022/01/08 08:44:01;;;;;;;32.40;14.80;;;;;;;-0.58;100.00;99163.61;105085;1273;59756;-68
2022/01/08 08:47:12;;;;;;;29.60;13.60;;;;;;;-0.59;100.00;99154.77;104699;1273;1003703;-69
2022/01/08 08:51:08;;;;;;;34.90;15.30;;;;;;;-0.57;100.00;99162.17;105210;1273;71289;-68
2022/01/08 08:54:15;;;;;;;29.80;13.70;;;;;;;-0.54;100.00;99155.38;105220;1273;67890;-69
2022/01/08 08:57:35;;;;;;;28.30;13.60;;;;;;;-0.51;100.00;99159.25;105217;1273;73002;-70
2022/01/08 09:00:28;;;;;;;30.10;13.30;;;;;;;-0.48;100.00;99157.91;104897;1274;59716;-68
2022/01/08 09:03:17;;;;;;;28.30;12.30;;;;;;;-0.46;100.00;99154.52;105004;1273;59368;-69
2022/01/08 09:06:04;;;;;;;32.30;13.50;;;;;;;-0.45;100.00;99151.17;104632;1273;73286;-69
2022/01/08 09:08:53;;;;;;;29.80;14.30;;;;;;;-0.49;100.00;99146.28;104664;1273;68293;-69
2022/01/08 09:11:43;;;;;;;33.40;15.20;;;;;;;-0.54;100.00;99144.21;104827;1274;73067;-69
2022/01/08 09:14:39;;;;;;;36.30;15.80;;;;;;;-0.51;100.00;99140.80;104918;1273;60633;-70
2022/01/08 09:17:42;;;;;;;29.10;12.90;;;;;;;-0.47;100.00;99147.07;105297;1274;60500;-69
2022/01/08 09:20:30;;;;;;;28.70;12.00;;;;;;;-0.48;100.00;99143.27;105095;1272;73258;-69
2022/01/08 09:23:18;;;;;;;29.50;13.30;;;;;;;-0.46;100.00;99143.51;105094;1273;66758;-69
2022/01/08 09:26:06;;;;;;;30.80;13.30;;;;;;;-0.44;100.00;99136.96;104912;1273;73218;-70
2022/01/08 09:28:54;;;;;;;32.90;14.60;;;;;;;-0.43;100.00;99133.95;105003;1273;59772;-70
2022/01/08 09:31:43;;;;;;;27.00;12.80;;;;;;;-0.37;100.00;99138.39;104864;1273;59777;-70
2022/01/08 09:34:34;;;;;;;37.30;17.00;;;;;;;-0.35;100.00;99133.40;104875;1273;73259;-70
2022/01/08 09:37:28;;;;;;;30.10;13.60;;;;;;;-0.31;100.00;99130.10;105149;1273;67974;-69
2022/01/08 09:40:26;;;;;;;34.00;14.70;;;;;;;-0.29;100.00;99130.17;104730;1273;73545;-69
2022/01/08 09:43:15;;;;;;;34.10;13.90;;;;;;;-0.28;100.00;99133.08;105278;1276;59689;-69
2022/01/08 09:46:04;;;;;;;27.20;11.90;;;;;;;-0.31;100.00;99134.30;104887;1274;59629;-69
2022/01/08 09:49:21;;;;;;;;;;;;;;;;;;;;;
2022/01/08 09:53:23;;;;;;;32.80;14.30;;;;;;;-0.22;100.00;99123.04;105176;1273;68169;-69
2022/01/08 09:56:28;;;;;;;36.10;14.70;;;;;;;-0.14;100.00;99120.05;105405;1274;71742;-69
2022/01/08 10:03:44;;;;;;;30.20;12.60;;;;;;;-0.06;100.00;99114.40;104805;1277;60411;-69
2022/01/08 10:06:45;;;;;;;33.90;15.10;;;;;;;-0.02;100.00;99105.84;104428;1278;74110;-71
2022/01/08 10:09:39;;;;;;;31.50;12.80;;;;;;;0.02;99.97;99109.48;104775;1278;66941;-70
2022/01/08 10:13:02;;;;;;;31.60;13.00;;;;;;;0.04;99.78;99108.01;105078;1277;73109;-70
2022/01/08 10:21:55;;;;;;;28.90;12.20;;;;;;;0.13;99.28;99104.04;104938;1279;60508;-71
2022/01/08 10:26:31;;;;;;;25.90;10.40;;;;;;;0.16;98.66;99103.40;104547;1280;74591;-70
2022/01/08 10:30:40;;;;;;;29.50;13.00;;;;;;;0.14;98.36;99097.91;104742;1279;66804;-71
2022/01/08 10:34:49;;;;;;;29.00;12.00;;;;;;;0.12;98.10;99100.27;104317;1284;74097;-70
2022/01/08 10:39:10;;;;;;;28.80;11.80;;;;;;;0.08;98.03;99097.87;104758;1281;59814;-70
2022/01/08 10:43:42;;;;;;;;;;;;;;;;;;;;;
2022/01/08 10:48:12;;;;;;;22.00;9.40;;;;;;;0.05;97.51;99091.56;105137;1280;73403;-69
2022/01/08 10:51:50;;;;;;;22.70;10.40;;;;;;;0.06;97.48;99091.35;105082;1279;67287;-69
2022/01/08 11:40:51;;;;;;;16.00;7.00;;;;;;;0.18;96.57;99069.83;104728;1284;72859;-71
2022/01/08 11:46:01;;;;;;;;;;;;;;;;;;;;;
2022/01/08 12:02:36;;;;;;;;;;;;;;;;;;;;;
2022/01/08 12:07:58;;;;;;;21.70;9.90;;;;;;;0.22;97.69;99047.64;102318;1306;73217;-71
2022/01/08 12:40:16;;;;;;;20.40;10.20;;;;;;;0.36;97.13;99037.66;103482;1299;66743;-70
2022/01/08 13:25:22;;;;;;;17.50;8.20;;;;;;;0.54;95.91;99036.34;105364;1283;62322;-71
2022/01/08 14:26:57;;;;;;;14.10;6.20;;;;;;;0.40;94.24;99056.82;103997;1286;71879;-71
2022/01/08 14:31:47;;;;;;;13.90;5.90;;;;;;;0.38;94.16;99052.94;103923;1288;69419;-72
2022/01/08 14:36:05;;;;;;;12.20;5.40;;;;;;;0.36;93.91;99056.17;104040;1290;72918;-71
2022/01/08 14:45:42;;;;;;;11.00;5.20;;;;;;;0.35;93.71;99048.36;104438;1284;62311;-72
2022/01/08 15:40:53;;;;;;;14.90;7.10;;;;;;;0.29;92.79;99051.95;103652;1285;61932;-72
2022/01/08 15:44:50;;;;;;;16.70;8.70;;;;;;;0.26;92.95;99056.63;104406;1288;73277;-68
2022/01/08 15:48:24;;;;;;;19.20;8.70;;;;;;;0.24;93.35;99056.56;104616;1281;67784;-71
2022/01/08 15:51:40;;;;;;;;;;;;;;;;;;;;;
2022/01/08 15:56:41;;;;;;;;;;;;;;;;;;;;;
2022/01/08 16:26:53;;;;;;;10.40;4.50;;;;;;;-0.15;92.52;99022.99;105188;1273;61806;-70
2022/01/08 16:39:38;;;;;;;11.70;5.40;;;;;;;-0.20;90.01;99012.02;105337;1273;71405;-69
2022/01/08 16:51:01;;;;;;;;;;;;;;;;;;;;;
2022/01/08 16:56:56;;;;;;;15.60;6.80;;;;;;;-0.27;89.82;99001.77;106179;1274;71450;-69
2022/01/08 17:00:18;;;;;;;15.40;7.30;;;;;;;-0.24;90.18;98998.66;104902;1277;66909;-68
2022/01/08 17:09:00;;;;;;;14.40;6.10;;;;;;;-0.33;88.28;98994.93;104689;1282;61113;-68
2022/01/08 17:16:28;;;;;;;16.30;6.20;;;;;;;-0.32;88.54;98990.89;104476;1282;73245;-69
2022/01/08 17:19:49;;;;;;;12.20;5.20;;;;;;;-0.31;88.27;98989.11;104264;1282;68033;-69
2022/01/08 17:23:47;;;;;;;12.90;5.90;;;;;;;-0.33;88.17;98990.23;104638;1281;72864;-68
2022/01/08 17:28:24;;;;;;;15.40;6.40;;;;;;;-0.36;88.38;98985.31;104470;1281;60078;-70
2022/01/08 17:32:33;;;;;;;15.30;7.20;;;;;;;-0.39;88.72;98987.04;104616;1281;60438;-69
2022/01/08 17:42:27;;;;;;;16.80;7.90;;;;;;;-0.50;88.77;98985.66;104530;1281;69467;-69
2022/01/08 17:46:01;;;;;;;18.60;7.70;;;;;;;-0.54;88.37;98989.34;105074;1272;73032;-68
2022/01/08 17:49:52;;;;;;;15.90;6.80;;;;;;;-0.56;87.57;98989.77;105153;1274;59965;-69
2022/01/08 17:53:31;;;;;;;13.60;4.60;;;;;;;-0.57;87.04;98994.70;104632;1273;1003918;-69
2022/01/08 18:03:41;;;;;;;13.10;5.10;;;;;;;-0.59;86.93;98995.52;104694;1278;69338;-68
2022/01/08 18:06:45;;;;;;;10.80;4.40;;;;;;;-0.58;87.36;98997.88;104740;1278;73102;-69
2022/01/08 18:10:06;;;;;;;12.70;5.30;;;;;;;-0.57;87.55;98999.56;104775;1277;59845;-69
2022/01/08 18:13:15;;;;;;;10.90;4.50;;;;;;;-0.59;87.31;98992.52;104887;1278;61117;-69
2022/01/08 18:16:45;;;;;;;13.90;5.50;;;;;;;-0.62;87.72;98984.67;104625;1278;72426;-68
2022/01/08 18:20:21;;;;;;;12.60;5.70;;;;;;;-0.62;88.20;98987.27;102710;1278;3248740;-68
2022/01/08 18:24:00;;;;;;;11.60;4.70;;;;;;;-0.62;87.86;98988.67;105208;1277;71723;-68
2022/01/08 18:27:54;;;;;;;12.80;5.90;;;;;;;-0.63;87.61;98986.83;105178;1277;59796;-68
2022/01/08 18:30:59;;;;;;;12.70;5.00;;;;;;;-0.64;87.76;98989.84;105104;1277;60282;-68
2022/01/08 18:34:28;;;;;;;12.50;6.00;;;;;;;-0.63;87.90;98995.70;104927;1277;73165;-69
2022/01/08 18:37:42;;;;;;;11.40;4.70;;;;;;;-0.62;87.84;98993.04;105362;1277;68106;-68
2022/01/08 18:40:39;;;;;;;12.80;5.20;;;;;;;-0.62;88.09;98994.23;105356;1277;71790;-69
2022/01/08 18:43:46;;;;;;;10.60;4.70;;;;;;;-0.63;87.96;98993.58;104792;1277;59784;-68
2022/01/08 18:47:10;;;;;;;10.70;4.70;;;;;;;-0.66;87.85;98991.13;103963;1277;1003448;-70
2022/01/08 18:50:46;;;;;;;10.70;4.40;;;;;;;-0.66;88.13;98982.42;105166;1276;1003229;-69
2022/01/08 18:54:15;;;;;;;13.70;5.50;;;;;;;-0.63;88.53;98986.61;105126;1276;68466;-68
2022/01/08 18:57:38;;;;;;;10.60;4.50;;;;;;;-0.58;88.20;98992.64;105196;1277;72925;-69
2022/01/08 19:00:47;;;;;;;12.60;5.50;;;;;;;-0.57;87.59;98989.47;104891;1273;59674;-68
2022/01/08 19:03:46;;;;;;;10.60;4.70;;;;;;;-0.60;86.51;98987.37;105423;1273;59764;-68
2022/01/08 19:06:50;;;;;;;13.50;5.30;;;;;;;-0.63;86.56;98984.55;105309;1273;73265;-69
2022/01/08 19:10:01;;;;;;;11.40;5.60;;;;;;;-0.62;86.56;98982.77;105234;1273;68165;-69
2022/01/08 19:13:47;;;;;;;11.30;4.60;;;;;;;-0.62;86.42;98980.48;105115;1273;73077;-68
2022/01/08 19:16:56;;;;;;;9.60;4.40;;;;;;;-0.62;86.76;98975.96;105202;1273;59776;-68
2022/01/08 19:25:18;;;;;;;13.10;5.90;;;;;;;-0.62;87.18;98971.44;105107;1273;75001;-69
2022/01/08 19:49:13;;;;;;;11.60;4.80;;;;;;;-0.63;86.93;98952.67;104062;1285;72460;-69
2022/01/08 19:52:24;;;;;;;11.70;5.40;;;;;;;-0.63;87.02;98956.83;104253;1285;68131;-68
2022/01/08 19:55:37;;;;;;;10.80;4.60;;;;;;;-0.63;87.14;98951.82;104446;1285;73152;-69
2022/01/08 19:58:50;;;;;;;15.90;5.70;;;;;;;-0.66;86.80;98949.31;104062;1285;59729;-68
2022/01/08 20:02:14;;;;;;;12.70;5.40;;;;;;;-0.67;87.09;98940.66;104264;1284;59801;-68
2022/01/08 20:05:47;;;;;;;10.70;5.40;;;;;;;-0.67;86.89;98930.22;104403;1285;72116;-68
2022/01/08 20:09:51;;;;;;;12.80;5.70;;;;;;;-0.68;87.33;98923.48;104460;1280;67864;-68
2022/01/08 20:13:41;;;;;;;12.40;6.00;;;;;;;-0.70;87.41;98919.34;104741;1279;73188;-69
2022/01/08 20:16:49;;;;;;;11.50;4.90;;;;;;;-0.71;87.60;98916.28;104932;1279;59625;-68
2022/01/08 20:20:48;;;;;;;12.90;6.30;;;;;;;-0.70;87.29;98917.63;104983;1274;59536;-68
2022/01/08 20:24:16;;;;;;;11.60;4.60;;;;;;;-0.68;87.70;98915.27;105648;1274;71495;-68
2022/01/08 20:27:12;;;;;;;12.10;5.30;;;;;;;-0.72;87.72;98910.06;104867;1274;66631;-68
2022/01/08 20:30:12;;;;;;;14.20;6.30;;;;;;;-0.70;87.89;98916.58;104984;1274;73048;-67
2022/01/08 20:33:07;;;;;;;12.50;5.30;;;;;;;-0.68;88.10;98909.36;105099;1274;59731;-68
2022/01/08 20:36:01;;;;;;;10.90;5.40;;;;;;;-0.69;87.83;98900.34;104879;1275;60590;-67
2022/01/08 20:38:57;;;;;;;13.50;5.50;;;;;;;-0.68;88.01;98899.94;105173;1274;73431;-68
2022/01/08 20:41:53;;;;;;;10.30;5.20;;;;;;;-0.67;88.29;98897.29;104634;1274;68116;-68
2022/01/08 20:44:53;;;;;;;16.10;6.70;;;;;;;-0.69;88.09;98898.05;104909;1274;72918;-68
2022/01/08 20:48:12;;;;;;;15.20;7.00;;;;;;;-0.69;88.06;98899.26;105053;1274;59765;-68
2022/01/08 20:51:22;;;;;;;14.10;5.70;;;;;;;-0.67;88.10;98895.05;104701;1274;60969;-67
2022/01/08 20:54:58;;;;;;;14.30;6.10;;;;;;;-0.65;88.11;98892.31;104842;1274;73137;-68
2022/01/08 20:58:00;;;;;;;15.40;6.60;;;;;;;-0.63;88.00;98889.42;105230;1274;68222;-68
2022/01/08 21:00:55;;;;;;;15.60;6.30;;;;;;;-0.62;87.96;98881.87;104305;1274;1003740;-68
2022/01/08 21:03:52;;;;;;;16.90;7.60;;;;;;;-0.63;88.23;98881.42;104930;1274;59646;-68
2022/01/08 21:07:24;;;;;;;19.00;7.30;;;;;;;-0.62;88.16;98874.38;104912;1274;59643;-68
2022/01/08 21:10:31;;;;;;;14.70;7.50;;;;;;;-0.62;88.31;98874.71;105144;1274;72171;-68
2022/01/08 21:13:21;;;;;;;14.00;6.50;;;;;;;-0.60;88.30;98871.14;104674;1274;67333;-68
2022/01/08 21:16:19;;;;;;;16.70;7.60;;;;;;;-0.61;88.01;98869.08;105057;1274;72804;-68
2022/01/08 21:19:17;;;;;;;13.40;5.70;;;;;;;-0.61;88.10;98859.52;104789;1276;59774;-68
2022/01/08 21:22:07;;;;;;;14.70;6.00;;;;;;;-0.64;88.06;98854.45;105103;1274;59791;-69
2022/01/08 21:25:19;;;;;;;17.00;7.30;;;;;;;-0.66;88.22;98851.63;105090;1272;73535;-68
2022/01/08 21:28:27;;;;;;;15.70;6.10;;;;;;;-0.66;88.42;98849.16;105075;1274;68894;-68
2022/01/08 21:31:27;;;;;;;16.30;6.90;;;;;;;-0.66;88.22;98850.57;105093;1274;73026;-68
2022/01/08 21:34:33;;;;;;;17.00;6.90;;;;;;;-0.66;88.18;98857.55;104937;1273;59698;-67
2022/01/08 21:37:40;;;;;;;16.40;7.70;;;;;;;-0.66;88.07;98855.42;104832;1274;60284;-67
2022/01/08 21:41:34;;;;;;;13.90;6.90;;;;;;;-0.64;88.52;98855.31;105073;1274;73755;-68
2022/01/08 21:46:00;;;;;;;15.40;7.40;;;;;;;-0.61;88.21;98855.54;105114;1274;69288;-68
2022/01/08 21:49:16;;;;;;;13.20;6.10;;;;;;;-0.57;88.30;98850.44;105112;1273;72920;-68
2022/01/08 21:52:11;;;;;;;15.50;6.20;;;;;;;-0.55;88.20;98859.21;105348;1274;59612;-68
2022/01/08 21:55:05;;;;;;;14.00;6.20;;;;;;;-0.55;88.16;98855.36;104947;1275;59592;-67
2022/01/08 21:58:05;;;;;;;11.30;4.70;;;;;;;-0.54;88.12;98855.52;104911;1272;72976;-68
2022/01/08 22:01:26;;;;;;;17.10;7.60;;;;;;;-0.55;88.34;98857.63;104616;1274;68630;-68
2022/01/08 22:04:42;;;;;;;16.30;8.00;;;;;;;-0.55;88.36;98854.68;105175;1274;72936;-68
2022/01/08 22:07:48;;;;;;;14.20;6.40;;;;;;;-0.56;88.34;98855.77;103652;1274;1003874;-68
2022/01/08 22:10:48;;;;;;;14.10;7.30;;;;;;;-0.59;88.31;98846.86;105028;1273;60730;-69
2022/01/08 22:14:10;;;;;;;11.90;5.40;;;;;;;-0.59;88.54;98851.23;104691;1274;71750;-68
2022/01/08 22:17:05;;;;;;;16.30;7.80;;;;;;;-0.63;89.02;98850.42;104903;1274;68285;-69
2022/01/08 22:20:07;;;;;;;18.80;9.00;;;;;;;-0.65;89.38;98847.55;104842;1274;73222;-68